Time;durP1;ratioP1;P1;durP2;ratioP2;P2;SDS_P1;SDS_P2;PMS_P1;PMS_P2;Temp;Humidity;BMP_temperature;BMP_pressure;BME280_temperature;BME280_humidity;BME280_pressure;Samples;Min_cycle;Max_cycle;Signal;HPM_P1;HPM_P2
2022/11/27 00:01:51;;;;;;;17.17;14.45;;;10.80;99.90;;;;;;4991375;28;20049;-79
2022/11/27 00:04:17;;;;;;;19.13;13.95;;;10.80;99.90;;;;;;4991410;28;20026;-79
2022/11/27 00:06:43;;;;;;;18.40;13.57;;;10.80;99.90;;;;;;4993469;28;20045;-79
2022/11/27 00:09:14;;;;;;;13.38;12.15;;;11.00;99.90;;;;;;4991729;28;20038;-79
2022/11/27 00:11:40;;;;;;;17.15;13.52;;;10.90;99.90;;;;;;5007967;28;20494;-79
2022/11/27 00:14:06;;;;;;;14.85;13.30;;;11.00;99.90;;;;;;4993063;28;20034;-79
2022/11/27 00:16:33;;;;;;;15.40;13.82;;;11.00;99.90;;;;;;4981093;28;20038;-79
2022/11/27 00:18:59;;;;;;;16.67;13.35;;;11.10;99.90;;;;;;5002582;28;20030;-79
2022/11/27 00:21:26;;;;;;;15.60;13.52;;;11.20;99.90;;;;;;5023567;28;20046;-79
2022/11/27 00:23:53;;;;;;;15.20;13.60;;;11.10;99.90;;;;;;4989002;28;20026;-79
2022/11/27 00:26:20;;;;;;;14.95;13.15;;;11.10;99.90;;;;;;5023033;28;20050;-79
2022/11/27 00:28:46;;;;;;;15.07;13.65;;;11.10;99.90;;;;;;4975413;28;20030;-79
2022/11/27 00:31:14;;;;;;;16.33;13.23;;;11.00;99.90;;;;;;5007757;28;20038;-79
2022/11/27 00:33:40;;;;;;;14.93;13.35;;;10.90;99.90;;;;;;5007036;28;20035;-79
2022/11/27 00:36:07;;;;;;;19.17;13.98;;;10.90;99.90;;;;;;4992574;28;20046;-79
2022/11/27 00:38:33;;;;;;;13.00;11.80;;;10.90;99.90;;;;;;4991442;28;20471;-79
2022/11/27 00:41:07;;;;;;;16.33;13.45;;;10.90;99.90;;;;;;4975753;28;20030;-79
2022/11/27 00:43:34;;;;;;;13.88;12.65;;;10.90;99.90;;;;;;4990941;28;20042;-79
2022/11/27 00:46:00;;;;;;;16.70;13.48;;;11.00;99.90;;;;;;4992423;28;20479;-79
2022/11/27 00:48:26;;;;;;;14.57;12.80;;;10.90;99.90;;;;;;4990805;28;20476;-79
2022/11/27 00:51:00;;;;;;;19.45;13.90;;;10.90;99.90;;;;;;4992355;28;20031;-79
2022/11/27 00:53:26;;;;;;;13.57;12.32;;;11.00;99.90;;;;;;4974731;28;20030;-79
2022/11/27 00:55:54;;;;;;;14.43;12.98;;;10.90;99.90;;;;;;4991369;28;20022;-79
2022/11/27 00:58:20;;;;;;;13.65;12.20;;;10.90;99.90;;;;;;4992577;28;20035;-79
2022/11/27 01:00:55;;;;;;;17.05;13.20;;;10.90;99.90;;;;;;4994936;28;20029;-79
2022/11/27 01:03:22;;;;;;;15.00;13.32;;;10.90;99.90;;;;;;4979126;28;20034;-79
2022/11/27 01:05:48;;;;;;;15.88;13.32;;;10.90;99.90;;;;;;5011640;28;20030;-79
2022/11/27 01:08:14;;;;;;;20.92;13.80;;;10.90;99.90;;;;;;5010711;28;20525;-79
2022/11/27 01:10:50;;;;;;;12.48;11.30;;;10.90;99.90;;;;;;4995467;28;20053;-79
2022/11/27 01:13:16;;;;;;;13.98;12.55;;;10.90;99.90;;;;;;4995116;28;20034;-79
2022/11/27 01:15:43;;;;;;;17.05;13.95;;;11.00;99.90;;;;;;4994719;28;20030;-79
2022/11/27 01:18:09;;;;;;;14.93;12.65;;;11.00;99.90;;;;;;4984804;28;20054;-79
2022/11/27 01:20:39;;;;;;;16.38;13.23;;;11.00;99.90;;;;;;4996241;28;20030;-79
2022/11/27 01:23:06;;;;;;;14.95;13.55;;;11.10;99.90;;;;;;5026192;28;20038;-79
2022/11/27 01:25:34;;;;;;;15.40;13.85;;;11.10;99.90;;;;;;5011162;28;20038;-79
2022/11/27 01:28:00;;;;;;;15.00;12.27;;;11.20;99.90;;;;;;4994424;28;20042;-79
2022/11/27 01:30:26;;;;;;;15.75;12.52;;;11.10;99.90;;;;;;4959390;28;20054;-79
2022/11/27 01:32:52;;;;;;;13.35;12.05;;;10.90;99.90;;;;;;4986497;28;20031;-79
2022/11/27 01:35:18;;;;;;;14.10;12.68;;;10.80;99.90;;;;;;5010534;28;20030;-79
2022/11/27 01:37:44;;;;;;;14.15;12.73;;;10.90;99.90;;;;;;4978698;28;20042;-79
2022/11/27 01:40:11;;;;;;;14.73;13.43;;;10.70;99.90;;;;;;4995748;28;20026;-79
2022/11/27 01:42:37;;;;;;;15.38;13.55;;;10.60;99.90;;;;;;4994742;28;20030;-79
2022/11/27 01:45:03;;;;;;;15.55;13.65;;;10.70;99.90;;;;;;4977120;28;20027;-80
2022/11/27 01:47:39;;;;;;;17.75;13.07;;;10.60;99.90;;;;;;4993332;28;20034;-79
2022/11/27 01:50:08;;;;;;;15.70;12.30;;;10.60;99.90;;;;;;4978265;28;20018;-79
2022/11/27 01:52:36;;;;;;;14.82;13.20;;;10.70;99.90;;;;;;4978455;28;20053;-79
2022/11/27 01:55:08;;;;;;;15.98;13.40;;;10.60;99.90;;;;;;4978726;28;20026;-79
2022/11/27 01:57:44;;;;;;;14.85;12.88;;;10.50;99.90;;;;;;4995448;28;20042;-79
2022/11/27 02:00:12;;;;;;;13.23;11.93;;;10.50;99.90;;;;;;4976860;28;20043;-79
2022/11/27 02:02:40;;;;;;;13.00;11.80;;;10.40;99.90;;;;;;4994060;28;20030;-79
2022/11/27 02:05:07;;;;;;;14.30;12.85;;;10.40;99.90;;;;;;4995192;28;20034;-79
2022/11/27 02:07:33;;;;;;;15.52;12.80;;;10.40;99.90;;;;;;5000335;28;20487;-79
2022/11/27 02:09:59;;;;;;;14.30;13.07;;;10.40;99.90;;;;;;4990944;28;20038;-79
2022/11/27 02:12:46;;;;;;;14.70;13.23;;;10.30;99.90;;;;;;4972608;28;20406;-79
2022/11/27 02:15:36;;;;;;;15.00;13.48;;;10.30;99.90;;;;;;4987262;28;20029;-79
2022/11/27 02:18:15;;;;;;;15.55;14.30;;;10.30;99.90;;;;;;4999869;28;20042;-79
2022/11/27 02:20:47;;;;;;;15.23;13.68;;;10.40;99.90;;;;;;4978484;28;20479;-79
2022/11/27 02:23:25;;;;;;;15.73;14.05;;;10.30;99.90;;;;;;4994945;28;20387;-79
2022/11/27 02:25:57;;;;;;;13.93;12.60;;;10.30;99.90;;;;;;4993609;28;20042;-79
2022/11/27 02:28:38;;;;;;;14.70;13.25;;;10.20;99.90;;;;;;4994717;28;20053;-79
2022/11/27 02:31:19;;;;;;;14.68;12.90;;;10.20;99.90;;;;;;5024503;28;20042;-79
2022/11/27 02:33:47;;;;;;;16.13;14.68;;;10.20;99.90;;;;;;4977381;28;20142;-79
2022/11/27 02:36:17;;;;;;;17.13;15.32;;;10.30;99.90;;;;;;4976490;28;20039;-79
2022/11/27 02:38:50;;;;;;;15.50;13.95;;;10.40;99.90;;;;;;4958583;28;20039;-79
2022/11/27 02:41:20;;;;;;;15.85;14.38;;;10.40;99.90;;;;;;4958720;28;20038;-79
2022/11/27 02:43:47;;;;;;;14.90;13.55;;;10.50;99.90;;;;;;4958245;28;20030;-79
2022/11/27 02:46:13;;;;;;;16.70;14.75;;;10.40;99.90;;;;;;5016287;28;20038;-79
2022/11/27 02:48:46;;;;;;;15.45;14.02;;;10.50;99.90;;;;;;4993678;28;20033;-79
2022/11/27 02:51:12;;;;;;;17.35;13.98;;;10.60;99.90;;;;;;4993074;28;20030;-79
2022/11/27 02:53:43;;;;;;;17.98;15.98;;;10.70;99.90;;;;;;4976911;28;20034;-79
2022/11/27 02:56:13;;;;;;;15.10;13.82;;;10.80;99.90;;;;;;4992830;28;20542;-79
2022/11/27 02:58:39;;;;;;;15.25;13.90;;;10.90;99.90;;;;;;4963217;28;20054;-79
2022/11/27 03:01:05;;;;;;;17.27;15.00;;;10.90;99.90;;;;;;4973013;28;20404;-79
2022/11/27 03:03:36;;;;;;;15.20;14.02;;;11.00;99.90;;;;;;4986924;28;20049;-79
2022/11/27 03:06:06;;;;;;;17.15;15.55;;;11.00;99.90;;;;;;4970829;28;20023;-79
2022/11/27 03:08:38;;;;;;;16.55;15.05;;;11.10;99.90;;;;;;4993380;28;20387;-79
2022/11/27 03:11:13;;;;;;;17.05;15.50;;;11.20;99.90;;;;;;4974026;28;20403;-80
2022/11/27 03:13:44;;;;;;;15.93;14.43;;;11.30;99.90;;;;;;4976239;28;20030;-80
2022/11/27 03:16:39;;;;;;;16.10;14.82;;;11.10;99.90;;;;;;4977969;28;20372;-80
2022/11/27 03:19:18;;;;;;;18.30;16.60;;;10.50;99.90;;;;;;4973847;28;20045;-79
2022/11/27 03:21:52;;;;;;;17.80;16.23;;;10.30;99.90;;;;;;5022981;28;20034;-79
2022/11/27 03:24:19;;;;;;;19.13;17.27;;;10.10;99.90;;;;;;4976047;28;20026;-79
2022/11/27 03:26:45;;;;;;;21.75;19.95;;;10.10;99.90;;;;;;4990871;28;20328;-79
2022/11/27 03:29:30;;;;;;;22.27;20.60;;;10.10;99.90;;;;;;5007726;28;20027;-79
2022/11/27 03:31:56;;;;;;;23.77;21.73;;;10.00;99.90;;;;;;5006662;28;20035;-79
2022/11/27 03:34:23;;;;;;;22.83;21.15;;;10.00;99.90;;;;;;4992149;28;20029;-79
2022/11/27 03:36:49;;;;;;;29.15;26.90;;;10.00;99.90;;;;;;4991155;28;20037;-79
2022/11/27 03:39:15;;;;;;;35.08;32.45;;;10.00;99.90;;;;;;4993573;28;20468;-80
2022/11/27 03:42:10;;;;;;;36.63;34.10;;;10.20;99.90;;;;;;5008784;28;20026;-79
2022/11/27 03:44:51;;;;;;;30.33;28.27;;;10.20;99.90;;;;;;5009998;28;20049;-79
2022/11/27 03:47:54;;;;;;;32.55;29.95;;;10.20;99.90;;;;;;4991328;28;20034;-80
2022/11/27 03:50:53;;;;;;;30.55;28.30;;;10.20;99.90;;;;;;4994444;28;20518;-79
2022/11/27 03:53:30;;;;;;;28.30;26.23;;;10.30;99.90;;;;;;4995572;28;20034;-79
2022/11/27 03:56:36;;;;;;;26.60;24.73;;;10.30;99.90;;;;;;4994777;28;20054;-79
2022/11/27 03:59:15;;;;;;;26.55;24.17;;;10.20;99.90;;;;;;4944651;29;20047;-80
2022/11/27 04:01:41;;;;;;;27.10;24.90;;;10.30;99.90;;;;;;4932355;28;20047;-80
2022/11/27 04:04:08;;;;;;;29.08;26.20;;;10.40;99.90;;;;;;4948332;28;20555;-79
2022/11/27 04:06:34;;;;;;;31.00;28.67;;;10.40;99.90;;;;;;4932818;29;20485;-81
2022/11/27 04:09:00;;;;;;;29.80;27.88;;;10.60;99.90;;;;;;4946721;28;20105;-81
2022/11/27 04:11:26;;;;;;;33.20;30.20;;;10.60;99.90;;;;;;4932873;29;20556;-81
2022/11/27 04:13:52;;;;;;;33.42;31.02;;;10.60;99.90;;;;;;4916999;29;20046;-81
2022/11/27 04:16:18;;;;;;;32.92;30.77;;;10.60;99.90;;;;;;4920003;28;20413;-82
2022/11/27 04:18:44;;;;;;;29.08;27.30;;;10.60;99.90;;;;;;4932317;29;20047;-81
2022/11/27 04:21:13;;;;;;;32.30;29.95;;;10.60;99.90;;;;;;4925433;29;20070;-81
2022/11/27 04:23:39;;;;;;;32.28;29.73;;;10.70;99.90;;;;;;4932664;29;20043;-81
2022/11/27 04:26:05;;;;;;;35.60;33.10;;;10.70;99.90;;;;;;4917434;29;20046;-81
2022/11/27 04:28:31;;;;;;;29.25;27.23;;;10.80;99.90;;;;;;4933280;29;20080;-81
2022/11/27 04:30:57;;;;;;;30.60;28.15;;;10.70;99.90;;;;;;4931703;28;20037;-81
2022/11/27 04:33:24;;;;;;;29.42;27.13;;;10.80;99.90;;;;;;4971662;28;20049;-81
2022/11/27 04:35:50;;;;;;;31.17;28.88;;;10.80;99.90;;;;;;4999529;28;20033;-81
2022/11/27 04:38:17;;;;;;;28.63;26.52;;;10.70;99.90;;;;;;5013489;28;20034;-81
2022/11/27 04:40:43;;;;;;;30.33;28.25;;;10.70;99.90;;;;;;4998984;28;20034;-81
2022/11/27 04:43:09;;;;;;;28.08;25.73;;;10.70;99.90;;;;;;4981399;28;20045;-81
2022/11/27 04:45:35;;;;;;;27.98;25.80;;;10.70;99.90;;;;;;4998347;28;20038;-81
2022/11/27 04:48:02;;;;;;;30.60;28.33;;;10.70;99.90;;;;;;4982104;28;20038;-81
2022/11/27 04:50:28;;;;;;;29.63;27.30;;;10.70;99.90;;;;;;5014614;28;20037;-81
2022/11/27 04:52:54;;;;;;;32.97;29.88;;;10.80;99.90;;;;;;4999266;28;20042;-81
2022/11/27 04:55:20;;;;;;;28.52;26.33;;;10.80;99.90;;;;;;5014608;28;20502;-81
2022/11/27 04:57:46;;;;;;;31.17;28.60;;;10.80;99.90;;;;;;5012327;28;20038;-81
2022/11/27 05:00:13;;;;;;;30.33;28.08;;;10.70;99.90;;;;;;4997258;28;20502;-82
2022/11/27 05:02:39;;;;;;;43.75;31.05;;;10.70;99.90;;;;;;4980613;28;20027;-82
2022/11/27 05:05:05;;;;;;;34.33;31.83;;;10.80;99.90;;;;;;4977272;28;20041;-81
2022/11/27 05:07:31;;;;;;;33.30;31.23;;;10.80;99.90;;;;;;5012905;28;20662;-80
2022/11/27 05:09:58;;;;;;;33.83;31.35;;;10.70;99.90;;;;;;5005817;28;20025;-81
2022/11/27 05:12:24;;;;;;;33.22;30.80;;;10.70;99.90;;;;;;4981809;28;20045;-81
2022/11/27 05:14:50;;;;;;;32.80;30.70;;;10.70;99.90;;;;;;5020881;28;20022;-81
2022/11/27 05:17:16;;;;;;;33.20;30.92;;;10.70;99.90;;;;;;4999484;28;20523;-81
2022/11/27 05:19:42;;;;;;;32.25;29.88;;;10.80;99.90;;;;;;5013937;28;20038;-82
2022/11/27 05:22:08;;;;;;;29.92;27.58;;;10.80;99.90;;;;;;4998066;28;20022;-81
2022/11/27 05:24:34;;;;;;;31.52;29.17;;;10.80;99.90;;;;;;5013240;28;20034;-81
2022/11/27 05:27:00;;;;;;;31.13;29.23;;;10.90;99.90;;;;;;4997498;28;20046;-81
2022/11/27 05:29:27;;;;;;;31.00;28.63;;;10.90;99.90;;;;;;4998681;28;20041;-82
2022/11/27 05:31:53;;;;;;;33.50;31.08;;;10.80;99.90;;;;;;4979440;28;20038;-81
2022/11/27 05:34:19;;;;;;;32.25;30.00;;;10.70;99.90;;;;;;4998193;28;20530;-81
2022/11/27 05:36:45;;;;;;;34.83;32.42;;;10.80;99.90;;;;;;4997671;28;20041;-81
2022/11/27 05:39:11;;;;;;;35.40;32.88;;;10.90;99.90;;;;;;4984489;28;20029;-81
2022/11/27 05:41:39;;;;;;;32.75;30.70;;;10.90;99.90;;;;;;5000960;28;20033;-82
2022/11/27 05:44:05;;;;;;;35.03;32.65;;;10.90;99.90;;;;;;5005656;28;20495;-81
2022/11/27 05:46:31;;;;;;;36.03;33.13;;;10.80;99.90;;;;;;4977597;28;20026;-81
2022/11/27 05:48:57;;;;;;;37.10;34.28;;;10.70;99.90;;;;;;4978144;28;20038;-81
2022/11/27 05:51:24;;;;;;;39.25;36.28;;;10.80;99.90;;;;;;4993248;28;20030;-81
2022/11/27 05:53:50;;;;;;;38.25;35.75;;;10.80;99.90;;;;;;4962633;28;20050;-81
2022/11/27 05:56:16;;;;;;;40.40;37.22;;;10.80;99.90;;;;;;4993984;28;20493;-82
2022/11/27 05:58:44;;;;;;;38.67;36.40;;;10.90;99.90;;;;;;4978352;28;20114;-81
2022/11/27 06:01:10;;;;;;;33.55;31.20;;;10.90;99.90;;;;;;4993494;28;20037;-82
2022/11/27 06:03:37;;;;;;;41.83;39.08;;;10.90;99.90;;;;;;5010699;28;20444;-82
2022/11/27 06:06:07;;;;;;;39.97;37.28;;;10.90;99.90;;;;;;4994117;28;20026;-80
2022/11/27 06:08:35;;;;;;;41.53;38.80;;;11.00;99.90;;;;;;4993632;28;20034;-82
2022/11/27 06:11:06;;;;;;;41.45;38.47;;;11.00;99.90;;;;;;4976850;28;20391;-82
2022/11/27 06:13:32;;;;;;;35.85;33.38;;;11.00;99.90;;;;;;4998839;28;20033;-81
2022/11/27 06:16:02;;;;;;;33.60;31.27;;;11.00;99.90;;;;;;4989172;28;20033;-81
2022/11/27 06:18:28;;;;;;;43.90;41.03;;;11.00;99.90;;;;;;5010061;28;20034;-80
2022/11/27 06:20:54;;;;;;;43.35;40.47;;;10.90;99.90;;;;;;4993242;28;20034;-81
2022/11/27 06:23:21;;;;;;;42.85;39.90;;;10.80;99.90;;;;;;4993783;28;20030;-81
2022/11/27 06:25:47;;;;;;;40.55;37.90;;;10.70;99.90;;;;;;4993421;28;20046;-83
2022/11/27 06:28:13;;;;;;;41.47;38.20;;;10.60;99.90;;;;;;5009152;28;20498;-83
2022/11/27 06:30:39;;;;;;;42.10;39.00;;;10.60;99.90;;;;;;4994551;28;20037;-83
2022/11/27 06:33:05;;;;;;;47.97;44.60;;;10.70;99.90;;;;;;4992605;28;20446;-83
2022/11/27 06:35:31;;;;;;;38.25;35.55;;;10.70;99.90;;;;;;4992740;28;20034;-83
2022/11/27 06:37:57;;;;;;;41.50;38.95;;;10.60;99.90;;;;;;4993049;28;20411;-82
2022/11/27 06:40:23;;;;;;;41.08;38.58;;;10.60;99.90;;;;;;4993984;28;20022;-82
2022/11/27 06:42:49;;;;;;;41.65;38.55;;;10.70;99.90;;;;;;4994095;28;20038;-83
2022/11/27 06:45:16;;;;;;;42.33;39.53;;;10.70;99.90;;;;;;4994297;28;20035;-82
2022/11/27 06:47:42;;;;;;;37.75;35.28;;;10.70;99.90;;;;;;5012885;28;20034;-83
2022/11/27 06:50:08;;;;;;;38.40;35.42;;;10.50;99.90;;;;;;5009692;28;20043;-83
2022/11/27 06:52:34;;;;;;;33.97;31.33;;;10.50;99.90;;;;;;4993879;28;20038;-82
2022/11/27 06:55:00;;;;;;;29.25;26.77;;;10.20;99.90;;;;;;4993770;28;20038;-82
2022/11/27 06:57:27;;;;;;;29.05;26.83;;;10.30;99.90;;;;;;5008464;28;20030;-83
2022/11/27 06:59:53;;;;;;;32.00;29.75;;;10.30;99.90;;;;;;4993299;28;20034;-83
2022/11/27 07:02:19;;;;;;;30.10;27.90;;;10.40;99.90;;;;;;4993838;28;20037;-82
2022/11/27 07:04:45;;;;;;;31.75;28.98;;;10.40;99.90;;;;;;4994519;28;20030;-82
2022/11/27 07:07:11;;;;;;;32.95;30.25;;;10.40;99.90;;;;;;4993936;28;20495;-82
2022/11/27 07:09:37;;;;;;;31.33;28.98;;;10.40;99.90;;;;;;4977244;28;20042;-82
2022/11/27 07:12:04;;;;;;;30.08;27.77;;;10.40;99.90;;;;;;4988562;28;20407;-82
2022/11/27 07:14:30;;;;;;;30.85;28.52;;;10.40;99.90;;;;;;5022115;28;20375;-82
2022/11/27 07:16:56;;;;;;;34.90;31.75;;;10.40;99.90;;;;;;5013340;28;20034;-82
2022/11/27 07:19:22;;;;;;;31.88;29.38;;;10.40;99.90;;;;;;5007821;28;20400;-82
2022/11/27 07:21:49;;;;;;;31.10;29.05;;;10.40;99.90;;;;;;4991951;28;20026;-82
2022/11/27 07:24:15;;;;;;;34.13;31.33;;;10.50;99.90;;;;;;5007674;28;20396;-82
2022/11/27 07:26:41;;;;;;;31.58;29.38;;;10.40;99.90;;;;;;4993783;28;20050;-81
2022/11/27 07:29:07;;;;;;;29.00;26.75;;;10.30;99.90;;;;;;5009193;28;20396;-81
2022/11/27 07:31:33;;;;;;;31.92;29.60;;;10.10;99.90;;;;;;4992107;28;20030;-81
2022/11/27 07:33:59;;;;;;;28.52;26.13;;;10.00;99.90;;;;;;4993298;28;20053;-82
2022/11/27 07:36:27;;;;;;;29.50;27.55;;;9.90;99.90;;;;;;5006790;28;20038;-81
2022/11/27 07:38:53;;;;;;;32.22;29.63;;;10.00;99.90;;;;;;5006337;28;20046;-82
2022/11/27 07:41:19;;;;;;;30.00;27.60;;;10.00;99.90;;;;;;5008956;28;20026;-82
2022/11/27 07:43:46;;;;;;;31.58;29.20;;;9.90;99.90;;;;;;4992517;28;20045;-86
2022/11/27 07:46:16;;;;;;;32.45;30.23;;;9.90;99.90;;;;;;5006362;28;20038;-85
2022/11/27 07:48:42;;;;;;;32.67;30.33;;;9.90;99.90;;;;;;5006534;28;20074;-86
2022/11/27 07:51:09;;;;;;;33.22;30.83;;;10.00;99.90;;;;;;4992819;28;20038;-84
2022/11/27 07:53:39;;;;;;;32.30;30.25;;;10.00;99.90;;;;;;5006181;28;20198;-83
2022/11/27 07:56:06;;;;;;;34.40;32.03;;;9.90;99.90;;;;;;4993580;28;20035;-85
2022/11/27 07:58:32;;;;;;;35.08;32.70;;;10.00;99.90;;;;;;5008791;28;20038;-84
2022/11/27 08:00:59;;;;;;;35.97;33.45;;;10.00;99.90;;;;;;4992445;28;20038;-84
2022/11/27 08:03:25;;;;;;;33.42;31.10;;;9.90;99.90;;;;;;4989453;28;20038;-84
2022/11/27 08:05:51;;;;;;;40.60;38.08;;;10.00;99.90;;;;;;5009610;28;20041;-84
2022/11/27 08:08:17;;;;;;;39.00;36.47;;;10.10;99.90;;;;;;4957956;28;20039;-84
2022/11/27 08:10:43;;;;;;;29.05;27.27;;;10.50;99.90;;;;;;4998406;28;20038;-84
2022/11/27 08:13:09;;;;;;;34.22;31.27;;;10.70;99.90;;;;;;4977818;28;20030;-84
2022/11/27 08:15:36;;;;;;;43.03;40.13;;;10.90;99.90;;;;;;5002694;28;20431;-84
2022/11/27 08:18:02;;;;;;;39.33;36.78;;;11.00;99.90;;;;;;4966816;28;20053;-83
2022/11/27 08:20:28;;;;;;;28.13;25.58;;;11.20;99.90;;;;;;4989150;28;20038;-84
2022/11/27 08:22:54;;;;;;;28.55;26.55;;;11.20;99.90;;;;;;4991043;28;20422;-84
2022/11/27 08:25:20;;;;;;;28.73;26.58;;;11.20;99.90;;;;;;5020815;28;20042;-83
2022/11/27 08:27:47;;;;;;;30.63;28.73;;;11.30;99.90;;;;;;4981593;28;20061;-84
2022/11/27 08:30:13;;;;;;;28.35;26.55;;;11.30;99.90;;;;;;4995031;28;20039;-85
2022/11/27 08:32:40;;;;;;;23.95;21.85;;;11.20;99.90;;;;;;5006427;28;20122;-81
2022/11/27 08:35:07;;;;;;;26.73;24.73;;;11.40;99.90;;;;;;5007909;28;20468;-82
2022/11/27 08:37:33;;;;;;;28.60;26.10;;;11.30;99.90;;;;;;4988524;28;20041;-84
2022/11/27 08:39:59;;;;;;;25.63;23.55;;;11.40;99.90;;;;;;5020841;28;20032;-83
2022/11/27 08:42:25;;;;;;;27.77;25.50;;;11.50;99.90;;;;;;4990416;28;20053;-84
2022/11/27 08:44:51;;;;;;;26.90;24.73;;;11.50;99.90;;;;;;4967327;28;20049;-83
2022/11/27 08:47:17;;;;;;;26.58;24.58;;;11.50;99.90;;;;;;4990225;28;20027;-85
2022/11/27 08:49:43;;;;;;;28.58;26.02;;;11.50;99.90;;;;;;4986935;28;20046;-85
2022/11/27 08:52:10;;;;;;;25.67;23.88;;;11.50;99.90;;;;;;4967186;28;20511;-85
2022/11/27 08:54:36;;;;;;;30.85;28.55;;;11.50;99.90;;;;;;5005526;28;20034;-83
2022/11/27 08:57:02;;;;;;;30.02;27.42;;;11.50;99.90;;;;;;4991512;28;20383;-85
2022/11/27 08:59:28;;;;;;;28.05;26.00;;;11.50;99.90;;;;;;4988565;28;20035;-86
2022/11/27 09:01:54;;;;;;;29.90;27.40;;;11.60;99.90;;;;;;5011870;28;20034;-87
2022/11/27 09:04:20;;;;;;;25.17;23.08;;;11.50;99.90;;;;;;4997708;28;20484;-91
2022/11/27 09:06:47;;;;;;;23.67;21.65;;;11.50;99.90;;;;;;4957235;28;20038;-91
2022/11/27 09:09:13;;;;;;;25.33;22.95;;;11.60;99.90;;;;;;4990802;28;20083;-87
2022/11/27 09:11:40;;;;;;;23.25;21.33;;;11.60;99.90;;;;;;5006358;28;20036;-87
2022/11/27 09:14:07;;;;;;;23.05;21.00;;;11.60;99.90;;;;;;5000107;28;20388;-90
2022/11/27 09:16:33;;;;;;;22.92;20.85;;;11.60;99.90;;;;;;4986398;28;20053;-87
2022/11/27 09:19:00;;;;;;;21.35;19.67;;;11.60;99.90;;;;;;4991411;28;20031;-87
2022/11/27 09:21:26;;;;;;;23.10;21.40;;;11.70;99.90;;;;;;5025750;28;20027;-87
2022/11/27 09:23:53;;;;;;;21.92;20.42;;;11.70;99.90;;;;;;4992348;28;20490;-84
2022/11/27 09:26:21;;;;;;;23.30;21.50;;;11.80;99.90;;;;;;4991961;28;20529;-84
2022/11/27 09:28:47;;;;;;;21.10;19.50;;;11.70;99.90;;;;;;4989783;28;20049;-84
2022/11/27 09:31:13;;;;;;;23.55;21.85;;;11.70;99.90;;;;;;5017487;28;20022;-85
2022/11/27 09:33:40;;;;;;;21.55;19.85;;;11.70;99.90;;;;;;5010842;28;20033;-86
2022/11/27 09:36:08;;;;;;;21.55;19.95;;;11.80;99.90;;;;;;4978046;28;20034;-86
2022/11/27 09:38:34;;;;;;;22.45;20.92;;;11.60;99.90;;;;;;4978003;28;20030;-86
2022/11/27 09:41:09;;;;;;;25.00;23.27;;;11.60;99.90;;;;;;4984202;28;20049;-84
2022/11/27 09:43:40;;;;;;;21.80;19.90;;;11.70;99.90;;;;;;5005562;28;20410;-83
2022/11/27 09:46:10;;;;;;;20.27;18.85;;;11.70;99.90;;;;;;4980585;28;20042;-86
2022/11/27 09:48:38;;;;;;;20.73;19.17;;;11.80;99.90;;;;;;4974075;28;20053;-86
2022/11/27 09:51:30;;;;;;;20.80;19.20;;;11.80;99.90;;;;;;4991346;28;20110;-86
2022/11/27 09:54:07;;;;;;;20.90;19.35;;;11.60;99.90;;;;;;4998648;28;20050;-86
2022/11/27 09:56:34;;;;;;;19.95;18.02;;;11.70;99.90;;;;;;5025626;28;20379;-85
2022/11/27 09:59:00;;;;;;;21.73;19.95;;;11.70;99.90;;;;;;4973151;28;20042;-86
2022/11/27 10:01:31;;;;;;;22.70;20.67;;;11.70;99.90;;;;;;4965180;28;20031;-88
2022/11/27 10:03:59;;;;;;;26.17;24.35;;;11.60;99.90;;;;;;4986833;28;20030;-86
2022/11/27 10:06:28;;;;;;;21.73;20.15;;;11.70;99.90;;;;;;4982502;28;20027;-82
2022/11/27 10:09:11;;;;;;;21.17;19.25;;;11.70;99.90;;;;;;4993889;28;20514;-83
2022/11/27 10:11:43;;;;;;;20.98;19.50;;;11.80;99.90;;;;;;5026091;28;20038;-84
2022/11/27 10:14:45;;;;;;;23.95;22.00;;;11.70;99.90;;;;;;4998409;28;20037;-83
2022/11/27 10:17:19;;;;;;;22.75;21.00;;;11.50;99.90;;;;;;5007307;28;20514;-81
2022/11/27 10:19:53;;;;;;;42.45;23.95;;;11.40;99.90;;;;;;5009959;28;20042;-83
2022/11/27 10:22:23;;;;;;;25.60;23.60;;;11.50;99.90;;;;;;4992782;28;20038;-83
2022/11/27 10:25:28;;;;;;;25.13;23.13;;;11.50;99.90;;;;;;5009550;28;20046;-83
2022/11/27 10:28:05;;;;;;;25.02;23.20;;;11.60;99.90;;;;;;4992529;28;20483;-83
2022/11/27 10:30:32;;;;;;;24.45;22.73;;;11.50;99.90;;;;;;4995408;28;20506;-83
2022/11/27 10:32:58;;;;;;;26.02;23.85;;;11.60;99.90;;;;;;4989661;28;20053;-83
2022/11/27 10:35:29;;;;;;;26.10;24.10;;;11.60;99.90;;;;;;4979301;28;20046;-83
2022/11/27 10:38:02;;;;;;;25.33;23.30;;;11.60;99.90;;;;;;4977424;28;20037;-83
2022/11/27 10:40:33;;;;;;;25.85;23.58;;;11.60;99.90;;;;;;4996170;28;20522;-83
2022/11/27 10:43:17;;;;;;;26.23;24.05;;;11.60;99.90;;;;;;4979324;28;20561;-83
2022/11/27 10:45:47;;;;;;;25.83;23.67;;;11.60;99.90;;;;;;4977588;28;20042;-83
2022/11/27 10:48:14;;;;;;;26.90;24.53;;;11.80;99.90;;;;;;4995474;28;20038;-84
2022/11/27 10:50:40;;;;;;;24.85;22.77;;;11.80;99.90;;;;;;4995532;28;20042;-83
2022/11/27 10:53:13;;;;;;;25.48;23.60;;;11.90;99.90;;;;;;4995159;28;20038;-83
2022/11/27 10:55:54;;;;;;;24.63;22.83;;;12.00;99.90;;;;;;4995841;28;20467;-83
2022/11/27 10:58:32;;;;;;;24.65;22.70;;;11.80;99.90;;;;;;4994636;28;20050;-83
2022/11/27 11:01:05;;;;;;;24.77;22.55;;;11.70;99.90;;;;;;4993691;28;20117;-83
2022/11/27 11:03:31;;;;;;;26.25;24.05;;;11.60;99.90;;;;;;4983892;28;20046;-83
2022/11/27 11:06:12;;;;;;;24.75;22.50;;;11.60;99.90;;;;;;5008675;28;20038;-83
2022/11/27 11:08:39;;;;;;;27.27;24.92;;;11.60;99.90;;;;;;4990893;28;20038;-83
2022/11/27 11:11:06;;;;;;;31.90;29.50;;;11.70;99.90;;;;;;4989318;28;20110;-83
2022/11/27 11:13:39;;;;;;;28.38;26.25;;;11.80;99.90;;;;;;4997100;28;20030;-83
2022/11/27 11:16:11;;;;;;;26.45;24.50;;;11.90;99.90;;;;;;4981750;28;20445;-83
2022/11/27 11:18:45;;;;;;;22.98;21.33;;;12.10;99.90;;;;;;4992572;28;20049;-83
2022/11/27 11:21:16;;;;;;;25.33;23.10;;;12.10;99.90;;;;;;5009020;28;20018;-83
2022/11/27 11:23:42;;;;;;;26.38;24.45;;;12.20;99.90;;;;;;5007389;28;20030;-83
2022/11/27 11:26:20;;;;;;;27.75;25.85;;;12.30;99.90;;;;;;4999744;28;20050;-84
2022/11/27 11:28:51;;;;;;;28.00;26.00;;;12.30;99.90;;;;;;4993728;28;20041;-83
2022/11/27 11:31:19;;;;;;;26.00;24.15;;;12.40;99.90;;;;;;4991159;28;20482;-83
2022/11/27 11:34:13;;;;;;;25.50;23.40;;;12.40;99.90;;;;;;4982659;28;20053;-84
2022/11/27 11:36:39;;;;;;;20.60;19.05;;;12.50;99.90;;;;;;5017217;28;20050;-84
2022/11/27 11:39:05;;;;;;;20.60;18.70;;;12.60;99.90;;;;;;5008415;28;20046;-83
2022/11/27 11:41:38;;;;;;;22.77;21.00;;;12.70;99.90;;;;;;5024412;28;20501;-84
2022/11/27 11:44:04;;;;;;;23.20;21.60;;;12.80;99.90;;;;;;5023974;28;20049;-84
2022/11/27 11:46:32;;;;;;;21.98;20.15;;;12.80;99.90;;;;;;5006926;28;20026;-84
2022/11/27 11:49:05;;;;;;;21.85;20.00;;;12.90;99.90;;;;;;4976599;28;20061;-84
2022/11/27 11:51:34;;;;;;;19.90;17.98;;;12.90;99.90;;;;;;5024175;28;20033;-83
2022/11/27 11:54:38;;;;;;;19.50;17.80;;;12.80;99.90;;;;;;4993383;28;20045;-83
2022/11/27 11:57:08;;;;;;;20.75;18.77;;;12.90;99.90;;;;;;4991848;28;20041;-83
2022/11/27 11:59:40;;;;;;;20.05;18.27;;;13.00;99.90;;;;;;5006073;28;20050;-84
2022/11/27 12:02:12;;;;;;;20.35;18.80;;;13.10;99.90;;;;;;4977215;28;20027;-84
2022/11/27 12:04:52;;;;;;;18.75;17.02;;;13.30;99.90;;;;;;4992450;28;20034;-84
2022/11/27 12:07:36;;;;;;;20.15;18.45;;;13.30;99.90;;;;;;5024348;28;20041;-84
2022/11/27 12:10:23;;;;;;;19.60;17.85;;;13.30;99.90;;;;;;4993354;28;20038;-84
2022/11/27 12:13:01;;;;;;;20.98;19.00;;;13.20;99.90;;;;;;5004419;28;20026;-84
2022/11/27 12:15:30;;;;;;;21.35;19.55;;;13.20;99.90;;;;;;4975666;28;20053;-84
2022/11/27 12:18:16;;;;;;;22.42;20.83;;;13.20;99.90;;;;;;5023921;28;20042;-84
2022/11/27 12:21:09;;;;;;;19.13;17.77;;;13.20;99.90;;;;;;5003893;28;20403;-83
2022/11/27 12:23:38;;;;;;;20.25;18.80;;;13.20;99.90;;;;;;5014443;28;20491;-83
2022/11/27 12:26:12;;;;;;;19.67;18.10;;;13.30;99.90;;;;;;4988542;28;20500;-84
2022/11/27 12:29:11;;;;;;;18.60;17.25;;;13.30;99.90;;;;;;4975969;28;20046;-83
2022/11/27 12:32:15;;;;;;;17.02;15.68;;;13.40;99.90;;;;;;4992512;28;20380;-84
2022/11/27 12:35:00;;;;;;;17.10;15.77;;;13.30;99.90;;;;;;4988252;28;20045;-83
2022/11/27 12:37:59;;;;;;;17.55;15.95;;;13.30;99.90;;;;;;5023781;28;20038;-84
2022/11/27 12:40:39;;;;;;;17.58;16.08;;;13.30;99.90;;;;;;4992829;28;20043;-84
2022/11/27 12:43:21;;;;;;;16.55;15.20;;;13.30;99.90;;;;;;5006194;28;20038;-83